Time;durP1;ratioP1;P1;durP2;ratioP2;P2;SDS_P1;SDS_P2;PMS_P1;PMS_P2;Temp;Humidity;BMP_temperature;BMP_pressure;BME280_temperature;BME280_humidity;BME280_pressure;Samples;Min_cycle;Max_cycle;Signal;HPM_P1;HPM_P2
2021/09/19 00:02:21;;;;;;;1.00;0.40;;;;;;;14.27;73.79;98705.52;1738707;80;21101;-54
2021/09/19 00:04:47;;;;;;;0.60;0.40;;;;;;;14.27;73.79;98698.75;1729248;80;21066;-55
2021/09/19 00:07:14;;;;;;;0.42;0.37;;;;;;;14.24;73.85;98697.14;1735151;80;21150;-55
2021/09/19 00:09:42;;;;;;;2.47;0.50;;;;;;;14.22;73.86;98707.22;1733398;80;21154;-54
2021/09/19 00:12:09;;;;;;;0.78;0.40;;;;;;;14.19;73.89;98710.19;1733819;80;21053;-55
2021/09/19 00:14:36;;;;;;;0.85;0.30;;;;;;;14.18;74.01;98711.17;1731272;80;21009;-55
2021/09/19 00:17:03;;;;;;;0.40;0.30;;;;;;;14.17;74.22;98710.80;1735208;80;20938;-55
2021/09/19 00:19:31;;;;;;;0.50;0.40;;;;;;;14.17;74.31;98710.80;1734426;80;21068;-55
2021/09/19 00:21:57;;;;;;;0.68;0.40;;;;;;;14.18;74.40;98713.87;1733889;80;21096;-54
2021/09/19 00:24:24;;;;;;;0.62;0.40;;;;;;;14.19;74.50;98714.25;1734480;80;21084;-55
2021/09/19 00:26:52;;;;;;;0.60;0.40;;;;;;;14.18;74.50;98713.87;1732523;80;21283;-55
2021/09/19 00:29:18;;;;;;;0.50;0.37;;;;;;;14.18;74.56;98702.19;1729932;80;21614;-55
2021/09/19 00:31:44;;;;;;;2.20;0.40;;;;;;;14.17;74.63;98716.20;1742059;80;21613;-55
2021/09/19 00:34:11;;;;;;;1.42;0.40;;;;;;;14.17;74.62;98710.80;1733343;80;21089;-55
2021/09/19 00:36:37;;;;;;;2.15;0.40;;;;;;;14.16;74.68;98709.06;1725199;80;21050;-55
2021/09/19 00:39:03;;;;;;;0.65;0.40;;;;;;;14.16;74.72;98709.06;1732915;80;21116;-55
2021/09/19 00:41:29;;;;;;;0.40;0.30;;;;;;;14.15;74.81;98705.98;1735834;80;21065;-55
2021/09/19 00:43:56;;;;;;;2.45;0.40;;;;;;;14.17;74.89;98710.80;1733624;80;21515;-55
2021/09/19 00:46:24;;;;;;;0.40;0.37;;;;;;;14.18;74.94;98715.23;1731697;80;21304;-55
2021/09/19 00:48:51;;;;;;;0.40;0.40;;;;;;;14.17;74.95;98712.14;1729052;80;21046;-55
2021/09/19 00:51:17;;;;;;;0.60;0.47;;;;;;;14.17;74.99;98713.98;1736239;80;21297;-55
2021/09/19 00:53:44;;;;;;;0.70;0.40;;;;;;;14.14;75.05;98718.28;1730026;80;21547;-55
2021/09/19 00:56:10;;;;;;;1.85;0.40;;;;;;;14.10;75.13;98712.27;1732064;80;21616;-55
2021/09/19 00:58:38;;;;;;;0.45;0.33;;;;;;;14.09;75.23;98721.85;1737927;80;21000;-55
2021/09/19 01:01:06;;;;;;;2.87;0.45;;;;;;;14.07;75.40;98726.03;1731424;80;21561;-55
2021/09/19 01:03:34;;;;;;;0.53;0.50;;;;;;;14.08;75.60;98721.48;1729397;80;21025;-55
2021/09/19 01:06:02;;;;;;;0.85;0.40;;;;;;;14.06;75.75;98722.95;1734102;80;21071;-55
2021/09/19 01:08:30;;;;;;;0.55;0.50;;;;;;;14.07;75.83;98726.52;1736661;80;20980;-55
2021/09/19 01:10:57;;;;;;;0.70;0.60;;;;;;;14.07;75.89;98715.69;1732221;80;21091;-55
2021/09/19 01:13:26;;;;;;;2.25;0.60;;;;;;;14.06;76.05;98716.18;1735632;80;21500;-55
2021/09/19 01:15:52;;;;;;;1.32;0.50;;;;;;;14.05;76.02;98719.87;1730673;80;21065;-55
2021/09/19 01:18:19;;;;;;;0.65;0.50;;;;;;;14.06;76.09;98716.18;1728947;80;21606;-54
2021/09/19 01:20:47;;;;;;;0.57;0.50;;;;;;;14.03;76.06;98713.22;1734786;80;21375;-55
2021/09/19 01:23:15;;;;;;;0.50;0.40;;;;;;;14.03;75.98;98714.23;1731819;80;21443;-55
2021/09/19 01:25:42;;;;;;;0.45;0.40;;;;;;;14.01;75.95;98715.20;1733029;80;21502;-54
2021/09/19 01:28:12;;;;;;;1.75;0.50;;;;;;;14.01;75.95;98714.34;1723634;80;22255;-54
2021/09/19 01:30:38;;;;;;;2.55;0.37;;;;;;;13.98;75.95;98712.73;1729207;80;21100;-54
2021/09/19 01:33:06;;;;;;;0.70;0.53;;;;;;;13.98;75.94;98709.16;1731720;80;21361;-55
2021/09/19 01:35:33;;;;;;;1.72;0.50;;;;;;;13.95;75.99;98714.31;1731293;80;21046;-55
2021/09/19 01:37:59;;;;;;;3.22;0.50;;;;;;;13.94;76.08;98709.91;1734154;80;21029;-55
2021/09/19 01:40:26;;;;;;;0.60;0.50;;;;;;;13.93;76.13;98710.02;1731262;80;21080;-54
2021/09/19 01:42:52;;;;;;;1.42;0.60;;;;;;;13.91;76.24;98711.49;1738698;80;21093;-54
2021/09/19 01:45:20;;;;;;;0.50;0.50;;;;;;;13.89;76.33;98705.82;1735698;80;21381;-53
2021/09/19 01:47:46;;;;;;;1.02;0.60;;;;;;;13.88;76.38;98710.86;1707105;80;21105;-54
2021/09/19 01:50:14;;;;;;;0.57;0.50;;;;;;;13.87;76.60;98709.12;1726883;80;21098;-53
2021/09/19 01:52:42;;;;;;;0.60;0.45;;;;;;;13.85;76.59;98713.34;1728645;80;21071;-54
2021/09/19 01:55:09;;;;;;;0.55;0.50;;;;;;;13.84;76.69;98709.39;1737064;80;21046;-54
2021/09/19 01:57:36;;;;;;;0.60;0.40;;;;;;;13.85;76.84;98711.12;1727777;80;21150;-54
2021/09/19 02:00:04;;;;;;;0.98;0.47;;;;;;;13.84;76.89;98708.03;1729298;80;21097;-54
2021/09/19 02:02:34;;;;;;;2.70;0.85;;;;;;;13.84;77.00;98701.28;1729568;80;21081;-54
2021/09/19 02:05:04;;;;;;;2.05;0.60;;;;;;;13.83;77.12;98697.70;1733993;80;21097;-54
2021/09/19 02:07:30;;;;;;;0.82;0.60;;;;;;;13.82;77.12;98695.98;1733365;80;20954;-54
2021/09/19 02:09:58;;;;;;;1.27;0.55;;;;;;;13.82;77.20;98693.77;1734662;80;21365;-53
2021/09/19 02:12:25;;;;;;;1.82;0.60;;;;;;;13.82;77.19;98695.98;1736524;80;21452;-54
2021/09/19 02:14:51;;;;;;;1.98;0.60;;;;;;;13.81;77.28;98692.90;1733582;80;21370;-54
2021/09/19 02:17:18;;;;;;;0.60;0.50;;;;;;;13.82;77.32;98700.03;1735923;80;20946;-54
2021/09/19 02:19:46;;;;;;;1.05;0.60;;;;;;;13.81;77.42;98694.74;1734777;80;21022;-54
2021/09/19 02:22:13;;;;;;;0.70;0.50;;;;;;;13.81;77.47;98701.50;1738995;80;21023;-53
2021/09/19 02:24:40;;;;;;;2.77;0.60;;;;;;;13.80;77.40;98698.42;1740447;80;20946;-55
2021/09/19 02:27:08;;;;;;;2.75;0.60;;;;;;;13.79;77.34;98697.56;1737835;80;20907;-53
2021/09/19 02:29:36;;;;;;;1.50;0.60;;;;;;;13.79;77.45;98692.15;1731761;80;20923;-53
2021/09/19 02:32:04;;;;;;;1.20;0.55;;;;;;;13.79;77.38;98700.27;1739951;80;20947;-54
2021/09/19 02:34:30;;;;;;;2.15;0.62;;;;;;;13.81;77.54;98700.16;1737660;80;21120;-54
2021/09/19 02:36:58;;;;;;;1.25;0.72;;;;;;;13.83;77.59;98699.55;1741932;80;20967;-53
2021/09/19 02:39:25;;;;;;;1.20;0.65;;;;;;;13.83;77.62;98695.49;1741851;80;20926;-53
2021/09/19 02:41:51;;;;;;;0.65;0.55;;;;;;;13.84;77.67;98699.92;1744108;80;21492;-54
2021/09/19 02:44:19;;;;;;;0.80;0.60;;;;;;;13.82;77.84;98694.62;1740247;80;21446;-54
2021/09/19 02:46:46;;;;;;;0.60;0.60;;;;;;;13.82;77.80;98700.03;1740273;80;21421;-54
2021/09/19 02:49:14;;;;;;;1.35;0.60;;;;;;;13.81;77.78;98696.09;1733691;80;21530;-54
2021/09/19 02:51:42;;;;;;;0.50;0.40;;;;;;;13.77;77.80;98694.62;1740528;80;21479;-53
2021/09/19 02:54:08;;;;;;;1.00;0.50;;;;;;;13.76;77.86;98694.25;1735331;80;22357;-54
2021/09/19 02:56:36;;;;;;;2.20;0.50;;;;;;;13.76;78.02;98694.25;1734307;80;21144;-54
2021/09/19 02:59:04;;;;;;;1.55;0.50;;;;;;;13.76;78.13;98688.84;1741398;80;21053;-53
2021/09/19 03:01:32;;;;;;;0.72;0.60;;;;;;;13.76;78.20;98692.90;1742891;80;21112;-54
2021/09/19 03:04:00;;;;;;;1.75;0.65;;;;;;;13.77;78.20;98693.27;1741484;80;21084;-54
2021/09/19 03:06:28;;;;;;;0.70;0.50;;;;;;;13.78;78.36;98695.00;1739990;80;21049;-54
2021/09/19 03:08:56;;;;;;;0.72;0.55;;;;;;;13.80;78.42;98695.72;1741854;80;21070;-54
2021/09/19 03:11:22;;;;;;;0.68;0.50;;;;;;;13.82;78.45;98691.06;1732915;80;21142;-53
2021/09/19 03:13:50;;;;;;;0.45;0.45;;;;;;;13.83;78.45;98696.35;1740885;80;21081;-54
2021/09/19 03:16:17;;;;;;;0.78;0.60;;;;;;;13.85;78.52;98696.24;1740036;80;21347;-54
2021/09/19 03:18:45;;;;;;;4.40;0.80;;;;;;;13.86;78.58;98699.32;1737995;80;21053;-55
2021/09/19 03:21:11;;;;;;;3.60;0.50;;;;;;;13.87;78.55;98695.61;1739620;80;21398;-54
2021/09/19 03:23:37;;;;;;;0.82;0.50;;;;;;;13.88;78.55;98698.69;1735488;80;21081;-54
2021/09/19 03:26:05;;;;;;;0.88;0.50;;;;;;;13.88;78.52;98698.20;1734746;80;21785;-54
2021/09/19 03:28:32;;;;;;;2.00;0.55;;;;;;;13.88;78.55;98696.84;1739642;80;21058;-54
2021/09/19 03:30:58;;;;;;;2.33;0.60;;;;;;;13.88;78.48;98696.84;1740888;80;21097;-54
2021/09/19 03:33:26;;;;;;;2.25;0.60;;;;;;;13.88;78.39;98698.20;1737824;80;21045;-54
2021/09/19 03:35:53;;;;;;;1.75;0.80;;;;;;;13.85;78.29;98697.10;1736228;80;22838;-54
2021/09/19 03:38:19;;;;;;;0.50;0.50;;;;;;;13.82;78.30;98698.69;1733417;80;21332;-54
2021/09/19 03:40:46;;;;;;;1.10;0.70;;;;;;;13.80;78.26;98699.28;1735354;80;21423;-53
2021/09/19 03:43:14;;;;;;;2.20;0.60;;;;;;;13.78;78.28;98698.53;1726974;80;21538;-54
2021/09/19 03:45:40;;;;;;;1.10;0.50;;;;;;;13.77;78.34;98695.98;1730461;80;21089;-53
2021/09/19 03:48:08;;;;;;;2.45;0.60;;;;;;;13.75;78.37;98692.52;1735802;80;21135;-54
2021/09/19 03:50:35;;;;;;;5.40;0.62;;;;;;;13.74;78.37;98699.77;1729130;80;20927;-54
2021/09/19 03:53:01;;;;;;;0.70;0.50;;;;;;;13.74;78.39;98698.91;1728443;80;21125;-55
2021/09/19 03:55:28;;;;;;;1.27;0.50;;;;;;;13.74;78.49;98693.02;1732019;80;21061;-54
2021/09/19 03:57:54;;;;;;;1.40;0.60;;;;;;;13.73;78.42;98694.48;1727656;80;21609;-54
2021/09/19 04:00:20;;;;;;;2.10;0.75;;;;;;;13.71;78.52;98685.61;1726000;80;21127;-54
2021/09/19 04:02:47;;;;;;;3.67;0.80;;;;;;;13.71;78.53;98697.30;1728836;80;21061;-54
2021/09/19 04:05:13;;;;;;;1.52;0.70;;;;;;;13.70;78.52;98696.05;1730489;80;21049;-55
2021/09/19 04:07:40;;;;;;;2.27;0.60;;;;;;;13.67;78.41;98698.53;1731173;80;21077;-54
2021/09/19 04:10:07;;;;;;;0.85;0.57;;;;;;;13.64;78.31;98691.51;1728955;80;21064;-54
2021/09/19 04:12:33;;;;;;;0.72;0.45;;;;;;;13.62;78.28;98692.59;1733220;80;22088;-54
2021/09/19 04:15:01;;;;;;;1.00;0.60;;;;;;;13.60;78.14;98702.70;1734017;80;20990;-53
2021/09/19 04:17:29;;;;;;;0.78;0.50;;;;;;;13.59;78.41;98697.77;1730182;80;21009;-53
2021/09/19 04:19:55;;;;;;;0.60;0.50;;;;;;;13.61;78.46;98703.91;1733058;80;21626;-54
2021/09/19 04:22:25;;;;;;;0.75;0.42;;;;;;;13.60;78.38;98694.09;1729532;80;21492;-53
2021/09/19 04:24:55;;;;;;;0.70;0.50;;;;;;;13.61;78.24;98695.79;1734918;80;21536;-53
2021/09/19 04:27:21;;;;;;;1.00;0.60;;;;;;;13.61;78.25;98702.55;1736303;80;21090;-53
2021/09/19 04:29:48;;;;;;;2.25;0.85;;;;;;;13.61;78.25;98699.84;1728202;80;21098;-54
2021/09/19 04:32:16;;;;;;;2.60;0.82;;;;;;;13.61;78.29;98694.44;1729857;80;21017;-54
2021/09/19 04:34:44;;;;;;;8.90;0.70;;;;;;;13.61;78.36;98703.91;1735179;80;22158;-53
2021/09/19 04:37:13;;;;;;;0.72;0.57;;;;;;;13.60;78.29;98693.23;1739255;80;21583;-53
2021/09/19 04:39:41;;;;;;;0.57;0.50;;;;;;;13.60;78.32;98695.45;1742279;80;21086;-53
2021/09/19 04:42:08;;;;;;;0.90;0.60;;;;;;;13.61;78.35;98693.57;1738062;80;21085;-53
2021/09/19 04:44:35;;;;;;;0.60;0.50;;;;;;;13.63;78.26;98690.27;1735764;80;21092;-54
2021/09/19 04:47:01;;;;;;;1.20;0.40;;;;;;;13.66;78.20;98685.98;1737217;80;21101;-53
2021/09/19 04:49:29;;;;;;;0.70;0.40;;;;;;;13.69;78.36;98698.42;1742413;80;21157;-53
2021/09/19 04:51:58;;;;;;;2.70;0.40;;;;;;;13.73;78.41;98693.13;1734732;80;21037;-52
2021/09/19 04:54:26;;;;;;;0.33;0.30;;;;;;;13.74;78.39;98688.95;1735858;80;21322;-53
2021/09/19 04:56:53;;;;;;;3.98;1.17;;;;;;;13.75;78.39;98692.52;1741230;80;20962;-54
2021/09/19 04:59:20;;;;;;;4.33;1.20;;;;;;;13.75;78.19;98690.68;1739370;80;20953;-54
2021/09/19 05:01:47;;;;;;;32.67;12.28;;;;;;;13.75;77.90;98687.11;1744910;80;22431;-53
2021/09/19 05:04:14;;;;;;;59.15;22.50;;;;;;;13.75;77.83;98691.17;1737362;80;20965;-53
2021/09/19 05:06:40;;;;;;;79.65;32.67;;;;;;;13.76;77.79;98690.19;1740587;80;20918;-53
2021/09/19 05:09:07;;;;;;;70.37;27.87;;;;;;;13.76;77.86;98695.12;1739744;80;20903;-54
2021/09/19 05:11:34;;;;;;;58.65;23.38;;;;;;;13.77;77.91;98700.03;1742311;80;20888;-53
2021/09/19 05:14:00;;;;;;;55.17;21.97;;;;;;;13.75;77.81;98701.50;1744693;80;21098;-54
2021/09/19 05:16:28;;;;;;;79.95;32.28;;;;;;;13.75;77.76;98704.20;1742084;80;20930;-54
2021/09/19 05:18:57;;;;;;;81.55;36.15;;;;;;;13.76;77.89;98701.02;1741965;80;20938;-54
2021/09/19 05:21:25;;;;;;;83.33;36.60;;;;;;;13.77;77.83;98708.15;1744399;80;20946;-54
2021/09/19 05:23:53;;;;;;;83.22;34.55;;;;;;;13.78;77.98;98711.23;1738717;80;20974;-52
2021/09/19 05:26:21;;;;;;;80.67;32.93;;;;;;;13.80;77.97;98709.24;1675569;83;20928;-53
2021/09/19 05:28:48;;;;;;;47.90;20.72;;;;;;;13.81;77.87;98701.50;1742244;80;20912;-53
2021/09/19 05:31:14;;;;;;;39.63;16.77;;;;;;;13.82;77.85;98697.33;1745436;80;20973;-53
2021/09/19 05:33:41;;;;;;;46.45;16.07;;;;;;;13.83;77.85;98700.41;1748959;80;21411;-53
2021/09/19 05:36:07;;;;;;;33.78;14.50;;;;;;;13.85;78.02;98700.30;1744386;80;21033;-53
2021/09/19 05:38:34;;;;;;;44.85;19.25;;;;;;;13.85;78.15;98706.57;1740460;80;21213;-54
2021/09/19 05:41:01;;;;;;;58.17;22.17;;;;;;;13.88;78.10;98709.50;1732632;80;21172;-52
2021/09/19 05:43:27;;;;;;;57.33;24.12;;;;;;;13.90;78.02;98706.20;1736676;80;21084;-53
2021/09/19 05:45:53;;;;;;;37.98;15.03;;;;;;;13.90;78.04;98700.78;1736836;80;21598;-53
2021/09/19 05:48:21;;;;;;;41.85;15.68;;;;;;;13.89;78.02;98696.35;1741205;80;21507;-53
2021/09/19 05:50:49;;;;;;;6.78;1.60;;;;;;;13.90;78.17;98692.67;1736177;80;21081;-54
2021/09/19 05:53:15;;;;;;;6.90;2.15;;;;;;;13.89;78.20;98690.45;1744715;80;21053;-54
2021/09/19 05:55:43;;;;;;;1.10;0.60;;;;;;;13.89;78.08;98685.53;1741152;80;21097;-53
2021/09/19 05:58:10;;;;;;;1.25;0.50;;;;;;;13.92;78.18;98684.81;1742609;80;21705;-53
2021/09/19 06:00:36;;;;;;;2.50;0.40;;;;;;;13.96;78.28;98685.41;1739482;80;21057;-54
2021/09/19 06:03:04;;;;;;;1.20;0.40;;;;;;;14.00;78.23;98683.72;1744213;80;21315;-54
2021/09/19 06:05:31;;;;;;;0.47;0.40;;;;;;;14.03;78.03;98677.70;1731736;80;21880;-52
2021/09/19 06:07:59;;;;;;;0.37;0.30;;;;;;;14.04;77.94;98676.20;1734875;80;21053;-53
2021/09/19 06:10:25;;;;;;;0.50;0.30;;;;;;;14.07;77.97;98672.40;1744785;80;21467;-54
2021/09/19 06:12:53;;;;;;;0.50;0.30;;;;;;;14.13;78.14;98671.91;1743522;80;20980;-54
2021/09/19 06:15:21;;;;;;;0.20;0.20;;;;;;;14.19;78.12;98679.55;1739777;80;21346;-54
2021/09/19 06:17:49;;;;;;;2.12;0.20;;;;;;;14.23;77.99;98676.95;1735455;80;21021;-54
2021/09/19 06:20:15;;;;;;;0.68;0.20;;;;;;;14.27;77.52;98685.22;1738474;80;22507;-55
2021/09/19 06:22:43;;;;;;;0.30;0.20;;;;;;;14.29;77.41;98672.42;1739188;80;21410;-55
2021/09/19 06:25:11;;;;;;;1.62;0.50;;;;;;;14.30;77.04;98679.53;1736470;80;21560;-55
2021/09/19 06:27:38;;;;;;;9.15;1.32;;;;;;;14.29;76.98;98680.03;1744412;80;21077;-55
2021/09/19 06:30:06;;;;;;;5.40;1.20;;;;;;;14.28;76.83;98682.39;1739476;80;21290;-55
2021/09/19 06:32:33;;;;;;;4.37;1.42;;;;;;;14.27;76.70;98679.80;1742129;80;20950;-55
2021/09/19 06:35:01;;;;;;;2.02;0.80;;;;;;;14.25;76.70;98682.63;1744030;80;21053;-55
2021/09/19 06:37:27;;;;;;;0.60;0.40;;;;;;;14.22;76.77;98684.21;1733022;80;20951;-55
2021/09/19 06:39:54;;;;;;;0.55;0.40;;;;;;;14.22;76.86;98684.21;1734976;80;21070;-55
2021/09/19 06:42:22;;;;;;;0.75;0.40;;;;;;;14.23;76.99;98689.14;1731057;80;21085;-55
2021/09/19 06:44:50;;;;;;;0.50;0.30;;;;;;;14.23;77.05;98687.29;1729890;80;21077;-55
2021/09/19 06:47:18;;;;;;;0.40;0.40;;;;;;;14.24;77.09;98676.84;1730922;80;21124;-55
2021/09/19 06:49:45;;;;;;;1.02;0.30;;;;;;;14.25;77.25;98674.51;1735318;80;21105;-55
2021/09/19 06:52:12;;;;;;;0.40;0.40;;;;;;;14.28;77.39;98664.80;1731576;80;21178;-54
2021/09/19 06:54:41;;;;;;;0.37;0.37;;;;;;;14.32;77.48;98666.25;1731551;80;21421;-55
2021/09/19 06:57:10;;;;;;;0.30;0.30;;;;;;;14.36;77.77;98664.17;1732680;80;21045;-54
2021/09/19 06:59:37;;;;;;;0.40;0.40;;;;;;;14.39;77.89;98660.74;1734286;80;21477;-55
2021/09/19 07:02:04;;;;;;;0.57;0.30;;;;;;;14.45;77.78;98655.84;1727081;80;21145;-54
2021/09/19 07:04:30;;;;;;;0.33;0.30;;;;;;;14.52;77.56;98650.28;1733816;80;21090;-54
2021/09/19 07:06:58;;;;;;;3.15;0.30;;;;;;;14.56;77.31;98647.19;1728510;80;21646;-53
2021/09/19 07:09:26;;;;;;;0.53;0.30;;;;;;;14.63;77.29;98654.34;1729069;80;21053;-54
2021/09/19 07:11:53;;;;;;;2.02;0.30;;;;;;;14.70;77.01;98654.20;1734279;80;21427;-53
2021/09/19 07:14:21;;;;;;;1.35;0.30;;;;;;;14.78;76.85;98649.50;1730592;80;21430;-54
2021/09/19 07:16:49;;;;;;;0.53;0.40;;;;;;;14.86;76.61;98653.30;1733386;80;21009;-53
2021/09/19 07:19:15;;;;;;;1.57;0.30;;;;;;;14.95;76.29;98646.25;1693505;82;21715;-54
2021/09/19 07:21:43;;;;;;;0.95;0.40;;;;;;;15.03;75.95;98651.39;1702083;82;21156;-53
2021/09/19 07:24:11;;;;;;;2.80;0.40;;;;;;;15.11;75.72;98648.90;1672546;83;21132;-53
2021/09/19 07:26:38;;;;;;;1.65;0.40;;;;;;;15.16;75.46;98648.50;1726511;80;21436;-54
2021/09/19 07:29:05;;;;;;;0.93;0.50;;;;;;;15.19;75.58;98652.80;1727947;80;21688;-53
2021/09/19 07:31:32;;;;;;;1.20;0.50;;;;;;;15.24;75.72;98642.42;1731525;80;21570;-53
2021/09/19 07:33:59;;;;;;;0.53;0.50;;;;;;;15.31;75.63;98649.07;1732257;80;21113;-54
2021/09/19 07:36:27;;;;;;;1.42;0.53;;;;;;;15.36;75.67;98650.39;1732216;80;20954;-53
2021/09/19 07:38:57;;;;;;;2.15;0.60;;;;;;;15.37;75.39;98648.05;1733645;80;20963;-53
2021/09/19 07:41:24;;;;;;;3.00;0.60;;;;;;;15.39;75.26;98654.70;1740611;80;21439;-54
2021/09/19 07:43:51;;;;;;;0.82;0.62;;;;;;;15.43;75.30;98653.44;1736097;80;21148;-53
2021/09/19 07:46:17;;;;;;;0.93;0.60;;;;;;;15.43;75.20;98650.72;1739816;80;21082;-54
2021/09/19 07:48:44;;;;;;;0.62;0.60;;;;;;;15.42;75.23;98657.13;1739191;80;21655;-53
2021/09/19 07:51:11;;;;;;;2.25;0.88;;;;;;;15.41;75.28;98657.63;1736453;80;21072;-54
2021/09/19 07:53:37;;;;;;;2.22;0.90;;;;;;;15.41;75.35;98654.05;1745709;80;21182;-53
2021/09/19 07:56:04;;;;;;;3.55;0.93;;;;;;;15.40;75.50;98657.75;1741188;80;21552;-54
2021/09/19 07:58:30;;;;;;;2.77;1.00;;;;;;;15.40;75.71;98660.46;1742747;80;20931;-54
2021/09/19 08:00:57;;;;;;;1.07;0.98;;;;;;;15.39;75.78;98656.06;1738504;80;21461;-51
2021/09/19 08:03:23;;;;;;;1.05;0.70;;;;;;;15.40;75.90;98658.61;1742021;80;21221;-54
2021/09/19 08:05:49;;;;;;;1.40;0.80;;;;;;;15.41;75.94;98659.47;1744624;80;21083;-54
2021/09/19 08:08:15;;;;;;;1.30;0.90;;;;;;;15.39;76.19;98656.92;1738292;80;21025;-54
2021/09/19 08:10:43;;;;;;;1.95;0.90;;;;;;;15.40;76.26;98655.04;1751921;80;21389;-54
2021/09/19 08:13:10;;;;;;;2.35;0.90;;;;;;;15.41;76.50;98654.05;1743180;80;21408;-54
2021/09/19 08:15:36;;;;;;;2.15;0.85;;;;;;;15.41;76.74;98654.05;1735011;80;20918;-54
2021/09/19 08:18:03;;;;;;;1.40;0.82;;;;;;;15.41;76.92;98649.98;1741422;80;21090;-54
2021/09/19 08:20:31;;;;;;;1.32;0.70;;;;;;;15.41;76.91;98648.62;1751259;80;20952;-54
2021/09/19 08:22:57;;;;;;;1.22;0.82;;;;;;;15.42;77.01;98649.00;1746872;80;20939;-54
2021/09/19 08:25:25;;;;;;;1.80;0.88;;;;;;;15.42;77.21;98642.22;1745188;80;21061;-54
2021/09/19 08:27:52;;;;;;;1.57;1.07;;;;;;;15.42;77.33;98643.08;1747856;80;20950;-54
2021/09/19 08:30:19;;;;;;;1.12;0.90;;;;;;;15.44;77.44;98640.24;1747195;80;21041;-54
2021/09/19 08:32:45;;;;;;;1.37;0.90;;;;;;;15.49;77.72;98636.63;1740390;80;21063;-54
2021/09/19 08:35:12;;;;;;;1.32;1.20;;;;;;;15.54;77.74;98631.72;1737452;80;21088;-54
2021/09/19 08:37:39;;;;;;;1.42;1.00;;;;;;;15.60;77.80;98634.39;1737615;80;21038;-54
2021/09/19 08:40:08;;;;;;;1.50;1.30;;;;;;;15.66;77.89;98630.64;1728996;80;21366;-54
2021/09/19 08:42:36;;;;;;;1.40;1.30;;;;;;;15.71;77.91;98630.26;1732924;80;22644;-53
2021/09/19 08:45:05;;;;;;;3.80;1.00;;;;;;;15.78;77.73;98630.08;1733060;80;20991;-52
2021/09/19 08:47:31;;;;;;;1.35;1.25;;;;;;;15.85;77.71;98623.98;1734536;80;21046;-53
2021/09/19 08:49:58;;;;;;;1.60;1.35;;;;;;;15.91;77.58;98615.79;1732990;80;21561;-54
2021/09/19 08:52:24;;;;;;;1.10;1.00;;;;;;;15.96;77.50;98620.34;1735440;80;21523;-54
2021/09/19 08:54:51;;;;;;;0.90;0.88;;;;;;;16.02;77.29;98623.86;1726850;80;21038;-55
2021/09/19 09:00:04;;;;;;;2.27;0.90;;;;;;;16.16;76.90;98613.16;1862015;74;28036;-55
2021/09/19 09:02:57;;;;;;;1.12;1.02;;;;;;;16.19;76.79;98616.44;1844007;76;21419;-55
2021/09/19 09:05:28;;;;;;;1.20;1.10;;;;;;;16.25;76.42;98610.95;1841475;77;21278;-54
2021/09/19 09:07:58;;;;;;;2.25;1.00;;;;;;;16.32;76.37;98600.42;1838936;76;21522;-55
2021/09/19 09:10:41;;;;;;;1.60;1.17;;;;;;;16.38;76.33;98608.87;1842254;76;20992;-54
2021/09/19 09:13:15;;;;;;;1.15;1.05;;;;;;;16.47;76.22;98605.33;1840058;76;21076;-53
2021/09/19 09:15:46;;;;;;;1.32;1.10;;;;;;;16.57;76.13;98600.78;1837479;76;21017;-55
2021/09/19 09:18:31;;;;;;;1.10;0.88;;;;;;;16.67;76.15;98599.98;1837759;76;21098;-54
2021/09/19 09:21:13;;;;;;;1.35;0.90;;;;;;;16.80;76.16;98603.28;1839547;76;21901;-54
2021/09/19 09:23:48;;;;;;;1.27;1.02;;;;;;;16.94;76.05;98609.15;1835297;77;20979;-54
2021/09/19 09:26:34;;;;;;;2.72;1.07;;;;;;;17.08;75.50;98592.08;1833924;77;26501;-53
2021/09/19 09:29:11;;;;;;;1.20;1.10;;;;;;;17.18;75.16;98592.41;1843844;75;21730;-53
2021/09/19 09:31:51;;;;;;;1.15;1.05;;;;;;;17.24;74.58;98586.42;1835226;75;21037;-53
2021/09/19 09:34:23;;;;;;;1.20;1.10;;;;;;;17.28;73.71;98584.25;1825980;75;21111;-54
2021/09/19 09:37:02;;;;;;;1.70;1.20;;;;;;;17.32;73.41;98585.20;1829623;75;21538;-54
2021/09/19 09:39:40;;;;;;;1.50;1.20;;;;;;;17.37;73.24;98591.05;1834553;75;21345;-54
2021/09/19 09:42:20;;;;;;;1.35;0.93;;;;;;;17.40;72.93;98592.63;1837060;75;20941;-54
2021/09/19 09:44:49;;;;;;;1.15;0.90;;;;;;;17.40;72.65;98592.63;1832732;75;21701;-54
2021/09/19 09:47:18;;;;;;;0.78;0.78;;;;;;;17.40;72.33;98593.49;1830603;75;21025;-54
2021/09/19 09:52:25;;;;;;;1.50;0.80;;;;;;;17.36;71.26;98609.73;1790368;78;28129;-54
2021/09/19 09:55:04;;;;;;;1.20;0.80;;;;;;;17.24;71.22;98612.76;1772986;79;21065;-55
2021/09/19 09:57:46;;;;;;;0.88;0.70;;;;;;;17.16;71.53;98613.48;1770714;78;21156;-53
2021/09/19 10:00:19;;;;;;;0.60;0.57;;;;;;;17.10;72.08;98611.30;1773041;78;21016;-53
2021/09/19 10:02:48;;;;;;;0.70;0.70;;;;;;;17.04;72.42;98625.47;1769336;78;21323;-55
2021/09/19 10:05:15;;;;;;;0.60;0.60;;;;;;;16.97;72.54;98625.69;1772128;78;21042;-55
2021/09/19 10:07:44;;;;;;;0.70;0.70;;;;;;;16.93;72.70;98631.03;1770565;78;20957;-54
2021/09/19 10:10:14;;;;;;;1.82;0.70;;;;;;;16.92;72.97;98629.34;1770028;79;21960;-53
2021/09/19 10:12:41;;;;;;;0.65;0.60;;;;;;;16.92;73.20;98626.12;1773226;79;20907;-52
2021/09/19 10:15:09;;;;;;;0.50;0.50;;;;;;;16.95;73.24;98629.04;1774243;79;20982;-53
2021/09/19 10:17:37;;;;;;;3.60;0.50;;;;;;;16.95;73.11;98621.75;1773882;78;21077;-53
2021/09/19 10:20:11;;;;;;;1.72;0.60;;;;;;;16.96;73.11;98630.27;1765152;78;21056;-53
2021/09/19 10:22:50;;;;;;;0.90;0.65;;;;;;;16.97;72.34;98633.84;1774572;78;20969;-52
2021/09/19 10:25:38;;;;;;;0.78;0.65;;;;;;;16.94;71.80;98628.18;1775618;78;21448;-53
2021/09/19 10:28:36;;;;;;;0.30;0.30;;;;;;;16.91;71.53;98631.70;1771634;79;20898;-54
2021/09/19 10:31:19;;;;;;;0.23;0.20;;;;;;;16.89;71.60;98643.20;1745317;80;20957;-53
2021/09/19 10:33:57;;;;;;;0.25;0.25;;;;;;;16.85;70.67;98636.31;1777490;78;21365;-52
2021/09/19 10:36:53;;;;;;;0.20;0.20;;;;;;;16.78;70.30;98640.59;1769942;79;21302;-53
2021/09/19 10:39:32;;;;;;;1.15;0.10;;;;;;;16.74;70.16;98646.83;1780410;78;21008;-52
2021/09/19 10:42:20;;;;;;;0.10;0.10;;;;;;;16.70;69.65;98647.23;1767911;78;21108;-53
2021/09/19 10:44:53;;;;;;;1.35;0.10;;;;;;;16.66;69.46;98648.52;1778960;78;21084;-53
2021/09/19 10:47:30;;;;;;;0.10;0.10;;;;;;;16.57;69.51;98648.32;1778258;78;20942;-52
2021/09/19 10:50:31;;;;;;;0.05;0.05;;;;;;;16.54;69.43;98658.09;1783972;78;21140;-52
2021/09/19 10:53:19;;;;;;;0.10;0.10;;;;;;;16.52;69.06;98653.78;1780636;79;21384;-52
2021/09/19 10:55:52;;;;;;;0.10;0.10;;;;;;;16.43;68.67;98650.04;1785851;78;20903;-52
2021/09/19 10:58:27;;;;;;;0.42;0.10;;;;;;;16.35;68.67;98653.94;1781531;78;20907;-53
2021/09/19 11:01:19;;;;;;;0.00;0.00;;;;;;;16.31;68.48;98661.16;1779195;78;20918;-53
2021/09/19 11:04:08;;;;;;;0.10;0.10;;;;;;;16.23;68.39;98657.77;1779034;78;21453;-53
2021/09/19 11:06:40;;;;;;;0.00;0.00;;;;;;;16.19;68.42;98656.30;1777589;78;20903;-53
2021/09/19 11:09:27;;;;;;;0.10;0.10;;;;;;;16.17;68.53;98661.00;1774068;78;20948;-53
2021/09/19 11:12:14;;;;;;;0.10;0.10;;;;;;;16.15;68.86;98658.45;1774260;78;20941;-53
2021/09/19 11:14:58;;;;;;;0.20;0.15;;;;;;;16.13;68.51;98661.78;1774044;78;21298;-53
2021/09/19 11:17:27;;;;;;;0.10;0.10;;;;;;;16.11;68.74;98662.41;1776149;79;20897;-53
2021/09/19 11:20:17;;;;;;;0.10;0.10;;;;;;;16.09;68.41;98663.53;1777842;79;20882;-53
2021/09/19 11:22:57;;;;;;;0.10;0.10;;;;;;;15.99;68.26;98659.40;1778274;79;21346;-53
2021/09/19 11:25:25;;;;;;;0.33;0.10;;;;;;;15.91;68.16;98666.52;1768674;79;20895;-53
2021/09/19 11:27:53;;;;;;;0.08;0.08;;;;;;;15.84;68.39;98668.39;1777136;79;20969;-54
2021/09/19 11:30:21;;;;;;;0.53;0.10;;;;;;;15.78;68.39;98666.71;1771149;79;21712;-54
2021/09/19 11:32:48;;;;;;;0.10;0.10;;;;;;;15.73;68.70;98668.98;1770896;79;20910;-53
2021/09/19 11:35:15;;;;;;;0.20;0.10;;;;;;;15.68;69.08;98661.22;1776246;79;21440;-54
2021/09/19 11:37:43;;;;;;;0.10;0.10;;;;;;;15.64;69.30;98662.48;1775185;79;21473;-53
2021/09/19 11:40:11;;;;;;;0.15;0.10;;;;;;;15.61;69.75;98664.09;1772390;79;21555;-54
2021/09/19 11:42:38;;;;;;;0.10;0.10;;;;;;;15.59;70.24;98661.14;1714676;79;21112;-53
2021/09/19 11:45:09;;;;;;;0.10;0.10;;;;;;;15.56;70.69;98663.64;1771308;78;21139;-53
2021/09/19 11:47:39;;;;;;;0.20;0.03;;;;;;;15.55;70.72;98654.28;1776139;78;20977;-54